Terminal Aerodrome Forecast
Issued by NWS Mt. Holly, NJ

Home | Current Version | Previous Version | Text Only | Print | Product List | Glossary On
Versions: 1 2 3 4 5 6 7 8 9 10 11 12 13 14 15 16 17
000
FTUS41 KPHI 251740
TAFTTN
TAF
KTTN 251740Z 2518/2618 29008KT P6SM SCT200
     FM260000 26003KT P6SM SCT150
     FM260600 34004KT P6SM BKN150
     FM260900 01006KT P6SM OVC150
     FM261300 03006KT P6SM SCT200=

USA.gov is the U.S. government's official web portal to all federal, state and local government web resources and services.